Time;durP1;ratioP1;P1;durP2;ratioP2;P2;SDS_P1;SDS_P2;PMS_P1;PMS_P2;Temp;Humidity;BMP_temperature;BMP_pressure;BME280_temperature;BME280_humidity;BME280_pressure;Samples;Min_cycle;Max_cycle;Signal;HPM_P1;HPM_P2
2022/12/08 00:01:02;;;;;;;3.67;0.90;;;2.40;99.90;;;;;;6206199;23;20079;-84
2022/12/08 00:03:28;;;;;;;5.10;1.00;;;2.30;99.90;;;;;;6182724;23;20437;-84
2022/12/08 00:11:22;;;;;;;3.47;0.60;;;2.20;99.90;;;;;;6182214;23;20349;-84
2022/12/08 00:13:48;;;;;;;6.03;0.70;;;2.40;99.90;;;;;;6181618;23;20012;-84
2022/12/08 00:16:14;;;;;;;6.60;0.70;;;2.70;99.90;;;;;;6182709;23;20082;-83
2022/12/08 00:18:39;;;;;;;3.92;0.77;;;2.20;99.90;;;;;;6209648;23;20382;-83
2022/12/08 00:21:05;;;;;;;6.80;1.10;;;2.90;99.90;;;;;;6180565;23;20055;-83
2022/12/08 00:23:31;;;;;;;11.40;1.05;;;3.20;99.90;;;;;;6209214;23;20074;-83
2022/12/08 00:26:01;;;;;;;3.08;0.90;;;3.10;99.90;;;;;;6181802;23;20491;-84
2022/12/08 00:28:27;;;;;;;2.92;0.73;;;2.30;99.90;;;;;;6181278;23;20111;-83
2022/12/08 00:30:53;;;;;;;2.90;0.80;;;3.00;99.90;;;;;;6182296;23;20083;-83
2022/12/08 00:33:19;;;;;;;6.20;0.65;;;3.30;99.90;;;;;;6182191;23;20020;-83
2022/12/08 00:35:44;;;;;;;8.50;1.13;;;3.20;99.90;;;;;;6180137;23;20017;-83
2022/12/08 00:38:10;;;;;;;5.60;0.80;;;2.80;99.90;;;;;;6182035;23;20391;-83
2022/12/08 00:40:36;;;;;;;4.57;0.98;;;2.10;99.90;;;;;;6182055;23;20108;-83
2022/12/08 00:43:01;;;;;;;2.85;0.60;;;2.80;99.90;;;;;;6180834;23;20012;-83
2022/12/08 00:45:27;;;;;;;4.53;0.50;;;2.10;99.90;;;;;;6157134;23;20095;-82
2022/12/08 00:47:53;;;;;;;5.20;0.68;;;2.50;99.90;;;;;;6181513;23;20020;-83
2022/12/08 00:50:18;;;;;;;5.85;0.95;;;3.00;99.90;;;;;;6180075;23;20067;-83
2022/12/08 00:52:44;;;;;;;5.35;0.70;;;2.10;99.90;;;;;;6181619;23;20100;-83
2022/12/08 00:55:10;;;;;;;4.88;0.70;;;3.00;99.90;;;;;;6181655;23;20020;-83
2022/12/08 00:57:35;;;;;;;9.82;1.00;;;3.30;99.90;;;;;;6181779;23;20020;-83
2022/12/08 01:00:01;;;;;;;6.85;1.40;;;2.70;99.90;;;;;;6180799;23;20044;-83
2022/12/08 01:02:27;;;;;;;10.35;0.93;;;2.80;99.90;;;;;;6181434;23;20013;-83
2022/12/08 01:04:52;;;;;;;7.30;1.35;;;2.40;99.90;;;;;;6180535;23;20079;-83
2022/12/08 01:07:18;;;;;;;11.50;0.93;;;2.90;99.90;;;;;;6172186;23;20078;-83
2022/12/08 01:09:44;;;;;;;8.25;1.13;;;1.90;99.90;;;;;;6212721;23;20031;-83
2022/12/08 01:12:09;;;;;;;6.38;0.70;;;2.30;99.90;;;;;;6213451;23;20078;-83
2022/12/08 01:14:36;;;;;;;7.70;1.17;;;2.60;99.90;;;;;;6214342;23;20020;-83
2022/12/08 01:17:01;;;;;;;10.07;1.13;;;2.30;99.90;;;;;;6187359;23;20031;-83
2022/12/08 01:19:27;;;;;;;4.30;1.00;;;2.70;99.90;;;;;;6213016;23;20023;-83
2022/12/08 01:21:53;;;;;;;3.90;1.13;;;1.80;99.90;;;;;;6213954;23;20048;-83
2022/12/08 01:24:20;;;;;;;5.90;1.42;;;1.70;99.90;;;;;;6212857;23;20095;-83
2022/12/08 01:26:47;;;;;;;5.13;1.40;;;1.90;99.90;;;;;;6188666;23;20012;-83
2022/12/08 01:29:13;;;;;;;7.50;0.98;;;2.60;99.90;;;;;;6213198;23;20024;-83
2022/12/08 01:31:39;;;;;;;4.00;0.68;;;2.60;99.90;;;;;;6213105;23;20455;-83
2022/12/08 01:34:05;;;;;;;7.13;0.80;;;2.70;99.90;;;;;;6213263;23;20048;-83
2022/12/08 01:36:33;;;;;;;7.32;0.90;;;2.90;99.90;;;;;;6212484;23;20023;-83
2022/12/08 01:39:00;;;;;;;8.23;1.00;;;2.90;99.90;;;;;;6187201;23;20091;-83
2022/12/08 01:41:29;;;;;;;6.43;0.73;;;3.10;99.90;;;;;;6188290;23;20024;-82
2022/12/08 01:43:59;;;;;;;7.63;0.80;;;2.80;99.90;;;;;;6213784;23;20455;-83
2022/12/08 01:46:27;;;;;;;8.63;1.42;;;2.10;99.90;;;;;;6212315;23;20182;-83
2022/12/08 01:49:00;;;;;;;6.13;1.00;;;1.90;99.90;;;;;;6213330;23;20024;-82
2022/12/08 01:51:27;;;;;;;2.80;0.70;;;3.00;99.90;;;;;;6212804;23;20023;-83
2022/12/08 01:53:53;;;;;;;6.80;0.90;;;3.00;99.90;;;;;;6212675;23;20091;-83
2022/12/08 01:56:30;;;;;;;9.00;2.85;;;3.20;99.90;;;;;;6212961;23;20051;-83
2022/12/08 01:58:55;;;;;;;3.97;0.50;;;2.20;99.90;;;;;;6212317;23;20024;-84
2022/12/08 02:01:21;;;;;;;3.58;0.60;;;3.20;99.90;;;;;;6213149;23;20086;-82
2022/12/08 02:03:53;;;;;;;8.18;0.77;;;2.90;99.90;;;;;;6213466;23;20099;-82
2022/12/08 02:06:19;;;;;;;4.18;0.73;;;3.10;99.90;;;;;;6207764;23;20016;-82
2022/12/08 02:08:46;;;;;;;5.18;0.50;;;2.20;99.90;;;;;;6183042;23;20021;-83
2022/12/08 02:11:12;;;;;;;4.35;0.88;;;3.10;99.90;;;;;;6182313;23;20044;-83
2022/12/08 02:13:39;;;;;;;6.70;0.60;;;2.90;99.90;;;;;;6157881;23;20377;-83
2022/12/08 02:16:33;;;;;;;4.07;0.40;;;2.50;99.90;;;;;;6181773;23;20013;-83
2022/12/08 02:19:33;;;;;;;1.25;0.38;;;2.50;99.90;;;;;;6157848;23;20032;-82
2022/12/08 02:22:05;;;;;;;2.30;0.50;;;2.60;99.90;;;;;;6181449;23;20020;-83
2022/12/08 02:24:45;;;;;;;3.45;0.30;;;2.50;99.90;;;;;;6183276;23;20028;-84
2022/12/08 02:27:40;;;;;;;5.22;0.45;;;2.00;99.90;;;;;;6182162;23;20017;-84
2022/12/08 02:30:19;;;;;;;6.45;0.50;;;2.50;99.90;;;;;;6182068;23;20583;-85
2022/12/08 02:33:05;;;;;;;4.63;0.50;;;3.00;99.90;;;;;;6182280;23;20017;-85
2022/12/08 02:35:34;;;;;;;3.15;0.70;;;2.20;99.90;;;;;;6156667;23;20023;-85
2022/12/08 02:38:16;;;;;;;5.63;0.32;;;3.20;99.90;;;;;;6182971;23;20096;-84
2022/12/08 02:40:59;;;;;;;4.30;0.57;;;3.10;99.90;;;;;;6158399;23;20017;-84
2022/12/08 02:43:30;;;;;;;4.88;0.65;;;2.10;99.90;;;;;;6183558;23;20020;-84
2022/12/08 02:46:02;;;;;;;1.75;0.40;;;1.90;99.90;;;;;;6183340;23;20091;-84
2022/12/08 02:48:28;;;;;;;4.90;0.43;;;1.60;99.90;;;;;;6157177;23;20021;-84
2022/12/08 02:50:54;;;;;;;2.78;0.38;;;2.80;99.90;;;;;;6182095;23;20451;-83
2022/12/08 02:53:20;;;;;;;5.35;0.50;;;3.10;99.90;;;;;;6183035;23;20345;-83
2022/12/08 02:56:07;;;;;;;0.65;0.30;;;1.70;99.90;;;;;;6156398;23;20031;-84
2022/12/08 02:58:47;;;;;;;1.60;0.38;;;1.80;99.90;;;;;;6183102;23;20079;-84
2022/12/08 03:01:36;;;;;;;1.27;0.30;;;1.80;99.90;;;;;;6182045;23;20020;-84
2022/12/08 03:04:27;;;;;;;2.70;0.35;;;1.60;99.90;;;;;;6156634;23;20027;-84
2022/12/08 03:07:03;;;;;;;1.88;0.50;;;2.50;99.90;;;;;;6192507;23;20027;-83
2022/12/08 03:09:40;;;;;;;3.13;0.63;;;1.40;99.90;;;;;;6187355;23;20070;-83
2022/12/08 03:12:18;;;;;;;4.03;0.40;;;2.60;99.90;;;;;;6212193;23;20024;-83
2022/12/08 03:14:49;;;;;;;2.90;0.40;;;2.60;99.90;;;;;;6187443;23;20020;-83
2022/12/08 03:17:17;;;;;;;1.33;0.40;;;2.10;99.90;;;;;;6211455;23;20024;-83
2022/12/08 03:19:46;;;;;;;2.38;0.55;;;1.60;99.90;;;;;;6187086;23;20012;-83
2022/12/08 03:22:14;;;;;;;2.92;0.47;;;1.60;99.90;;;;;;6212121;23;20020;-83
2022/12/08 03:24:44;;;;;;;1.80;0.57;;;1.30;99.90;;;;;;6211991;23;20028;-83
2022/12/08 03:27:13;;;;;;;1.70;0.40;;;2.70;99.90;;;;;;6212223;23;20024;-83
2022/12/08 03:29:39;;;;;;;2.78;0.63;;;1.90;99.90;;;;;;6211903;23;20100;-83
2022/12/08 03:32:21;;;;;;;2.10;0.30;;;1.90;99.90;;;;;;6210801;23;20099;-84
2022/12/08 03:34:49;;;;;;;2.50;0.85;;;1.70;99.90;;;;;;6211476;23;20023;-84
2022/12/08 03:37:15;;;;;;;2.88;0.45;;;2.40;99.90;;;;;;6186768;23;20360;-84
2022/12/08 03:39:41;;;;;;;2.95;0.60;;;2.70;99.90;;;;;;6187412;23;20421;-84
2022/12/08 03:42:07;;;;;;;1.92;0.52;;;3.00;99.90;;;;;;6211288;23;20055;-84
2022/12/08 03:44:33;;;;;;;3.25;0.80;;;2.80;99.90;;;;;;6186800;23;20012;-84
2022/12/08 03:46:59;;;;;;;1.63;0.55;;;2.80;99.90;;;;;;6211313;23;20052;-84
2022/12/08 03:49:24;;;;;;;1.40;0.60;;;2.90;99.90;;;;;;6211293;23;20027;-84
2022/12/08 03:51:50;;;;;;;2.88;0.93;;;2.80;99.90;;;;;;6211917;23;20020;-85
2022/12/08 03:54:18;;;;;;;2.70;0.93;;;1.80;99.90;;;;;;6211614;23;20052;-84
2022/12/08 03:56:44;;;;;;;5.40;0.65;;;1.50;99.90;;;;;;6212390;23;20026;-84
2022/12/08 03:59:09;;;;;;;2.80;0.90;;;2.60;99.90;;;;;;6210342;23;20099;-84
2022/12/08 04:01:35;;;;;;;4.10;0.93;;;1.70;99.90;;;;;;6212126;23;20016;-83
2022/12/08 04:04:01;;;;;;;3.75;0.90;;;2.50;99.90;;;;;;6187243;23;20381;-84
2022/12/08 04:06:27;;;;;;;4.88;0.90;;;1.60;99.90;;;;;;6209544;23;20020;-83
2022/12/08 04:08:53;;;;;;;5.18;0.90;;;2.10;99.90;;;;;;6212457;23;20444;-83
2022/12/08 04:11:19;;;;;;;1.95;0.80;;;1.70;99.90;;;;;;6211241;23;20052;-83
2022/12/08 04:13:45;;;;;;;2.35;0.93;;;2.00;99.90;;;;;;6211330;23;20023;-84
2022/12/08 04:16:19;;;;;;;5.63;0.90;;;1.70;99.90;;;;;;6186704;23;20012;-83
2022/12/08 04:18:46;;;;;;;3.78;0.90;;;2.40;99.90;;;;;;6212240;23;20312;-84
2022/12/08 04:21:12;;;;;;;3.67;0.73;;;1.40;99.90;;;;;;6184938;23;20657;-84
2022/12/08 04:23:38;;;;;;;3.97;0.88;;;3.00;99.90;;;;;;6187518;23;20031;-84
2022/12/08 04:26:04;;;;;;;3.60;0.98;;;2.20;99.90;;;;;;6186354;23;20016;-84
2022/12/08 04:28:30;;;;;;;5.20;1.02;;;2.90;99.90;;;;;;6185976;23;20024;-84
2022/12/08 04:30:56;;;;;;;3.10;0.88;;;2.60;99.90;;;;;;6212069;23;20036;-84
2022/12/08 04:33:22;;;;;;;5.13;1.23;;;2.40;99.90;;;;;;6211693;23;20081;-83
2022/12/08 04:35:47;;;;;;;3.05;0.80;;;2.80;99.90;;;;;;6185735;23;20020;-84
2022/12/08 04:38:13;;;;;;;3.40;1.00;;;2.20;99.90;;;;;;6211988;23;20383;-83
2022/12/08 04:40:39;;;;;;;3.97;0.80;;;1.80;99.90;;;;;;6210470;23;20432;-84
2022/12/08 04:43:05;;;;;;;3.03;0.80;;;3.20;99.90;;;;;;6212368;23;20024;-84
2022/12/08 04:45:31;;;;;;;6.90;1.17;;;3.30;99.90;;;;;;6213553;23;20092;-85
2022/12/08 04:47:58;;;;;;;6.25;0.90;;;2.80;99.90;;;;;;6187782;23;20012;-84
2022/12/08 04:50:24;;;;;;;5.05;0.90;;;3.20;99.90;;;;;;6188326;23;20458;-84
2022/12/08 04:52:50;;;;;;;3.72;0.60;;;1.80;99.90;;;;;;6213142;23;20012;-84
2022/12/08 04:55:17;;;;;;;2.65;0.30;;;2.10;99.90;;;;;;6213170;23;20849;-84
2022/12/08 04:57:42;;;;;;;3.25;0.40;;;2.10;99.90;;;;;;6213714;23;20020;-84
2022/12/08 05:00:09;;;;;;;3.42;0.63;;;1.60;99.90;;;;;;6213585;23;20099;-84
2022/12/08 05:02:35;;;;;;;3.10;0.50;;;2.20;99.90;;;;;;6213337;23;20012;-83
2022/12/08 05:05:01;;;;;;;3.72;0.38;;;2.90;99.90;;;;;;6186934;23;20100;-84
2022/12/08 05:07:26;;;;;;;2.10;0.55;;;2.80;99.90;;;;;;6213921;23;20449;-84
2022/12/08 05:09:52;;;;;;;3.55;0.57;;;3.30;99.90;;;;;;6212560;23;20039;-84
2022/12/08 05:12:18;;;;;;;3.95;0.47;;;3.10;99.90;;;;;;6213895;23;20051;-84
2022/12/08 05:14:46;;;;;;;4.80;0.32;;;2.20;99.90;;;;;;6213835;23;20024;-84
2022/12/08 05:17:13;;;;;;;4.13;0.32;;;1.20;99.90;;;;;;6187854;23;20109;-83
2022/12/08 05:19:39;;;;;;;6.97;0.95;;;3.00;99.90;;;;;;6213384;23;20020;-83
2022/12/08 05:22:04;;;;;;;2.47;0.40;;;2.00;99.90;;;;;;6212283;23;20127;-84
2022/12/08 05:24:30;;;;;;;3.30;0.40;;;2.40;99.90;;;;;;6211873;23;20020;-83
2022/12/08 05:26:56;;;;;;;4.88;0.75;;;1.40;99.90;;;;;;6210795;23;20050;-84
2022/12/08 05:29:22;;;;;;;2.92;0.63;;;1.30;99.90;;;;;;6213214;23;20600;-83
2022/12/08 05:31:47;;;;;;;1.77;0.77;;;1.80;99.90;;;;;;6211314;23;20012;-83
2022/12/08 05:34:13;;;;;;;4.80;0.60;;;2.70;99.90;;;;;;6212176;23;20056;-84
2022/12/08 05:36:39;;;;;;;6.20;1.15;;;2.50;99.90;;;;;;6213826;23;20019;-84
2022/12/08 05:39:05;;;;;;;5.78;0.90;;;1.90;99.90;;;;;;6211998;23;20161;-83
2022/12/08 05:41:31;;;;;;;7.28;0.90;;;3.00;99.90;;;;;;6213803;23;20099;-84
2022/12/08 05:43:56;;;;;;;5.50;0.80;;;3.00;99.90;;;;;;6212311;23;20115;-85
2022/12/08 05:46:22;;;;;;;4.55;0.70;;;2.00;99.90;;;;;;6187623;23;20024;-84
2022/12/08 05:48:48;;;;;;;6.28;1.02;;;2.10;99.90;;;;;;6213252;23;20119;-84
2022/12/08 05:51:22;;;;;;;4.25;0.93;;;2.80;99.90;;;;;;6211057;23;20016;-84
2022/12/08 05:53:50;;;;;;;5.20;1.25;;;1.90;99.90;;;;;;6213570;23;20063;-84
2022/12/08 05:56:16;;;;;;;4.15;0.77;;;2.80;99.90;;;;;;6212274;23;20095;-83
2022/12/08 05:58:43;;;;;;;7.47;0.98;;;2.00;99.90;;;;;;6212672;23;20087;-84
2022/12/08 06:01:21;;;;;;;4.38;0.85;;;2.40;99.90;;;;;;6212244;23;20020;-84
2022/12/08 06:03:46;;;;;;;5.70;0.80;;;1.60;99.90;;;;;;6213254;23;20012;-84
2022/12/08 06:06:12;;;;;;;5.18;0.65;;;1.70;99.90;;;;;;6210321;23;20067;-84
2022/12/08 06:08:38;;;;;;;2.83;0.60;;;2.80;99.90;;;;;;6213867;23;20036;-84
2022/12/08 06:11:04;;;;;;;5.53;0.70;;;1.60;99.90;;;;;;6211626;23;20387;-84
2022/12/08 06:13:30;;;;;;;2.33;0.40;;;1.90;99.90;;;;;;6212497;23;20467;-85
2022/12/08 06:16:01;;;;;;;4.60;0.52;;;1.50;99.90;;;;;;6213013;23;20054;-87
2022/12/08 06:18:30;;;;;;;4.75;0.60;;;1.30;99.90;;;;;;6211692;23;20388;-84
2022/12/08 06:21:05;;;;;;;4.28;0.60;;;0.90;99.90;;;;;;6210654;23;20012;-84
2022/12/08 06:23:31;;;;;;;2.58;0.40;;;1.60;99.90;;;;;;6213699;23;20045;-84
2022/12/08 06:26:02;;;;;;;3.60;0.60;;;2.70;99.90;;;;;;6211280;23;20055;-84
2022/12/08 06:28:29;;;;;;;2.63;0.50;;;2.00;99.90;;;;;;6213163;23;20491;-84
2022/12/08 06:30:55;;;;;;;3.47;1.00;;;2.30;99.90;;;;;;6212621;23;20016;-84
2022/12/08 06:33:21;;;;;;;6.72;1.00;;;1.20;99.90;;;;;;6211814;23;20459;-84
2022/12/08 06:35:46;;;;;;;3.78;1.10;;;2.50;99.90;;;;;;6186778;23;20038;-84
2022/12/08 06:38:12;;;;;;;4.80;0.73;;;1.30;99.90;;;;;;6212398;23;20031;-84
2022/12/08 06:40:38;;;;;;;4.05;0.93;;;1.50;99.90;;;;;;6212041;23;20032;-84
2022/12/08 06:43:06;;;;;;;7.07;0.80;;;1.20;99.90;;;;;;6211791;23;20022;-84
2022/12/08 06:45:31;;;;;;;5.47;0.68;;;0.70;99.90;;;;;;6187707;23;20086;-84
2022/12/08 06:48:01;;;;;;;7.90;1.00;;;1.20;99.90;;;;;;6210886;23;20391;-85
2022/12/08 06:50:27;;;;;;;2.03;0.55;;;1.60;99.90;;;;;;6212164;23;20147;-84
2022/12/08 06:52:53;;;;;;;5.13;0.90;;;2.30;99.90;;;;;;6187489;23;20070;-84
2022/12/08 06:55:19;;;;;;;4.00;0.82;;;2.30;99.90;;;;;;6211111;23;20090;-84
2022/12/08 06:57:45;;;;;;;4.45;0.88;;;1.00;99.90;;;;;;6212712;23;20051;-84
2022/12/08 07:00:11;;;;;;;3.65;0.60;;;1.40;99.90;;;;;;6211745;23;20020;-84
2022/12/08 07:02:37;;;;;;;1.98;0.63;;;1.00;99.90;;;;;;6212324;23;20397;-84
2022/12/08 07:05:03;;;;;;;1.65;0.40;;;2.30;99.90;;;;;;6185723;23;20056;-84
2022/12/08 07:07:29;;;;;;;1.00;0.60;;;1.00;99.90;;;;;;6212527;23;20091;-85
2022/12/08 07:09:54;;;;;;;3.72;0.82;;;2.00;99.90;;;;;;6211526;23;20110;-84
2022/12/08 07:12:20;;;;;;;5.90;0.63;;;0.90;99.90;;;;;;6212454;23;20506;-85
2022/12/08 07:14:46;;;;;;;4.72;0.77;;;0.80;99.90;;;;;;6212182;23;20073;-84
2022/12/08 07:17:12;;;;;;;5.70;0.63;;;0.90;99.90;;;;;;6211317;23;20138;-83
2022/12/08 07:19:38;;;;;;;2.15;0.47;;;1.70;99.90;;;;;;6211768;23;20058;-85
2022/12/08 07:22:03;;;;;;;1.67;0.50;;;0.70;99.90;;;;;;6211902;23;20369;-82
2022/12/08 07:24:29;;;;;;;6.40;0.60;;;1.30;99.90;;;;;;6211198;23;20044;-84
2022/12/08 07:26:55;;;;;;;3.60;0.60;;;1.60;99.90;;;;;;6212290;23;20348;-85
2022/12/08 07:29:21;;;;;;;3.75;0.60;;;0.60;99.90;;;;;;6185558;23;20471;-84
2022/12/08 07:31:47;;;;;;;4.47;0.68;;;0.50;99.90;;;;;;6212174;23;20459;-84
2022/12/08 07:34:14;;;;;;;1.88;0.60;;;1.50;99.90;;;;;;6211581;23;20032;-83
2022/12/08 07:36:40;;;;;;;7.40;0.90;;;0.60;99.90;;;;;;6210975;23;20395;-85
2022/12/08 07:39:05;;;;;;;2.80;0.70;;;1.40;99.90;;;;;;6212349;23;20440;-84
2022/12/08 07:41:32;;;;;;;7.30;0.90;;;1.50;99.90;;;;;;6212214;23;20031;-84
2022/12/08 07:44:00;;;;;;;4.30;0.90;;;0.40;99.90;;;;;;6185798;23;20024;-84
2022/12/08 07:46:26;;;;;;;3.03;0.80;;;1.40;99.90;;;;;;6212203;23;20020;-83
2022/12/08 07:48:53;;;;;;;3.45;0.90;;;1.20;99.90;;;;;;6211591;23;20023;-83
2022/12/08 07:51:19;;;;;;;5.47;1.30;;;0.80;99.90;;;;;;6185147;23;20158;-85
2022/12/08 07:53:47;;;;;;;5.47;1.33;;;1.10;99.90;;;;;;6213070;23;20448;-85
2022/12/08 07:56:13;;;;;;;5.05;1.10;;;1.60;99.90;;;;;;6186634;23;20020;-85
2022/12/08 07:58:40;;;;;;;10.25;1.58;;;0.40;99.90;;;;;;6210728;23;20523;-84
2022/12/08 08:01:16;;;;;;;5.97;1.40;;;1.50;99.90;;;;;;6186118;23;20038;-85
2022/12/08 08:03:42;;;;;;;7.03;2.00;;;0.70;99.90;;;;;;6212076;23;20405;-86
2022/12/08 08:06:08;;;;;;;5.78;1.50;;;1.50;99.90;;;;;;6209087;23;20012;-84
2022/12/08 08:08:33;;;;;;;9.55;1.67;;;0.30;99.90;;;;;;6221795;23;20031;-85
2022/12/08 08:10:59;;;;;;;9.40;1.70;;;0.90;99.90;;;;;;6210849;23;20020;-84
2022/12/08 08:13:25;;;;;;;8.95;1.98;;;0.10;99.90;;;;;;6211441;23;20055;-84
2022/12/08 08:15:53;;;;;;;9.38;2.10;;;1.30;99.90;;;;;;6211328;23;20428;-83
2022/12/08 08:18:18;;;;;;;7.68;2.10;;;0.40;99.90;;;;;;6211690;23;20266;-83
2022/12/08 08:20:44;;;;;;;4.32;1.77;;;1.60;99.90;;;;;;6184582;23;20047;-84
2022/12/08 08:23:10;;;;;;;5.75;1.75;;;0.70;99.90;;;;;;6211741;23;20016;-84
2022/12/08 08:25:35;;;;;;;8.10;1.80;;;1.20;99.90;;;;;;6210899;23;20077;-83
2022/12/08 08:28:01;;;;;;;4.25;1.85;;;1.30;99.90;;;;;;6210854;23;20103;-84
2022/12/08 08:30:27;;;;;;;7.40;1.92;;;0.50;99.90;;;;;;6212077;23;20028;-83
2022/12/08 08:32:53;;;;;;;6.32;2.10;;;1.40;99.90;;;;;;6211147;23;20024;-84
2022/12/08 08:35:18;;;;;;;13.43;2.17;;;1.60;99.90;;;;;;6210803;23;20017;-83
2022/12/08 08:37:44;;;;;;;6.53;1.92;;;2.00;99.90;;;;;;6186767;23;20341;-83
2022/12/08 08:40:10;;;;;;;3.97;1.45;;;1.90;99.90;;;;;;6185364;23;20016;-83
2022/12/08 08:42:36;;;;;;;10.30;2.22;;;0.90;99.90;;;;;;6212099;23;20074;-83
2022/12/08 08:45:01;;;;;;;5.75;1.60;;;0.90;99.90;;;;;;6210954;23;20448;-84
2022/12/08 08:47:29;;;;;;;14.80;2.25;;;1.00;99.90;;;;;;6210740;23;20094;-83
2022/12/08 08:49:55;;;;;;;10.23;2.53;;;2.00;99.90;;;;;;6185948;23;20028;-83
2022/12/08 08:52:21;;;;;;;10.25;1.70;;;0.80;99.90;;;;;;6211597;23;20089;-83
2022/12/08 08:54:46;;;;;;;7.15;1.83;;;1.80;99.90;;;;;;6210999;23;20024;-83
2022/12/08 08:57:12;;;;;;;7.78;1.40;;;1.50;99.90;;;;;;6211436;23;20421;-83
2022/12/08 08:59:38;;;;;;;6.32;1.42;;;2.10;99.90;;;;;;6212118;23;20109;-83
2022/12/08 09:02:04;;;;;;;9.00;1.80;;;0.70;99.90;;;;;;6211133;23;20020;-83
2022/12/08 09:04:29;;;;;;;7.90;1.80;;;1.20;99.90;;;;;;6210827;23;20459;-83
2022/12/08 09:06:55;;;;;;;6.55;1.85;;;0.70;99.90;;;;;;6211623;23;20147;-83
2022/12/08 09:09:21;;;;;;;7.28;2.17;;;0.60;99.90;;;;;;6209805;23;20024;-83
2022/12/08 09:11:46;;;;;;;5.32;1.70;;;0.70;99.90;;;;;;6212034;23;20048;-84
2022/12/08 09:14:14;;;;;;;8.57;1.88;;;0.80;99.90;;;;;;6211413;23;20016;-83
2022/12/08 09:16:40;;;;;;;9.98;1.98;;;2.20;99.90;;;;;;6210943;23;20030;-84
2022/12/08 09:19:06;;;;;;;8.75;2.53;;;1.50;99.90;;;;;;6211315;23;20121;-84
2022/12/08 09:21:32;;;;;;;12.35;2.22;;;1.00;99.90;;;;;;6210661;23;20421;-84
2022/12/08 09:23:58;;;;;;;7.90;2.50;;;1.20;99.90;;;;;;6210740;23;20020;-84
2022/12/08 09:26:25;;;;;;;8.40;2.22;;;1.30;99.90;;;;;;6211937;23;20069;-84
2022/12/08 09:28:52;;;;;;;12.35;2.92;;;0.90;99.90;;;;;;6211028;23;20094;-84
2022/12/08 09:31:21;;;;;;;10.85;2.65;;;2.40;99.90;;;;;;6188208;23;20020;-84
2022/12/08 09:33:50;;;;;;;13.25;3.10;;;2.10;99.90;;;;;;6213274;23;20070;-84
2022/12/08 09:36:16;;;;;;;11.82;2.25;;;1.60;99.90;;;;;;6211460;23;20027;-84
2022/12/08 09:38:42;;;;;;;7.72;1.50;;;1.60;99.90;;;;;;6212883;23;20016;-83
2022/12/08 09:41:35;;;;;;;7.53;1.80;;;2.30;99.90;;;;;;6212804;23;20023;-84
2022/12/08 09:44:20;;;;;;;5.93;1.70;;;2.50;99.90;;;;;;6211671;23;20024;-83
2022/12/08 09:46:48;;;;;;;6.13;1.52;;;1.60;99.90;;;;;;6187433;23;20061;-83
2022/12/08 09:49:17;;;;;;;10.13;1.55;;;2.30;99.90;;;;;;6212159;23;20099;-84
2022/12/08 09:51:44;;;;;;;10.27;1.65;;;2.00;99.90;;;;;;6187066;23;20020;-84
2022/12/08 09:54:22;;;;;;;3.25;1.20;;;2.90;99.90;;;;;;6212843;23;20511;-83
2022/12/08 09:56:54;;;;;;;10.65;2.08;;;1.60;99.90;;;;;;6213280;23;20017;-83
2022/12/08 09:59:31;;;;;;;8.68;1.58;;;2.00;99.90;;;;;;6211508;23;20062;-84
2022/12/08 10:01:56;;;;;;;8.15;2.08;;;2.90;99.90;;;;;;6213312;23;20052;-83
2022/12/08 10:04:27;;;;;;;11.23;2.10;;;2.40;99.90;;;;;;6185697;23;20023;-83
2022/12/08 10:07:04;;;;;;;7.10;2.03;;;2.40;99.90;;;;;;6212683;23;20020;-83
2022/12/08 10:09:44;;;;;;;13.30;2.78;;;2.40;99.90;;;;;;6213279;23;20437;-84
2022/12/08 10:12:41;;;;;;;7.47;1.80;;;1.60;99.90;;;;;;6212134;23;20016;-83
2022/12/08 10:15:36;;;;;;;9.55;2.72;;;1.60;99.90;;;;;;6186521;23;20020;-83
2022/12/08 10:18:09;;;;;;;7.75;1.75;;;1.60;99.90;;;;;;6211858;23;20024;-84
2022/12/08 10:20:39;;;;;;;12.00;2.45;;;2.00;99.90;;;;;;6186483;23;20008;-83
2022/12/08 10:23:08;;;;;;;6.43;1.52;;;2.40;99.90;;;;;;6212412;23;20016;-84
2022/12/08 10:25:46;;;;;;;6.22;2.00;;;1.80;99.90;;;;;;6211765;23;20021;-84
2022/12/08 10:28:12;;;;;;;13.77;2.17;;;2.90;99.90;;;;;;6212050;23;20414;-84
2022/12/08 10:30:37;;;;;;;9.38;1.63;;;2.60;99.90;;;;;;6212972;23;20118;-84
2022/12/08 10:33:03;;;;;;;7.07;1.67;;;1.50;99.90;;;;;;6211065;23;20051;-84
2022/12/08 10:35:46;;;;;;;9.30;1.40;;;2.30;99.90;;;;;;6187150;23;20035;-84
2022/12/08 10:38:24;;;;;;;4.47;1.33;;;2.00;99.90;;;;;;6212713;23;20288;-84
2022/12/08 10:40:53;;;;;;;7.05;1.20;;;2.30;99.90;;;;;;6210820;23;20078;-84
2022/12/08 10:43:25;;;;;;;9.73;1.38;;;3.40;99.90;;;;;;6212688;23;20443;-84
2022/12/08 10:46:07;;;;;;;7.05;1.65;;;2.50;99.90;;;;;;6212616;23;20024;-84
2022/12/08 10:48:32;;;;;;;7.10;1.90;;;2.80;99.90;;;;;;6211988;23;20027;-84
2022/12/08 10:50:59;;;;;;;12.23;1.38;;;4.00;99.90;;;;;;6186132;23;20028;-84
2022/12/08 10:53:27;;;;;;;7.32;1.30;;;4.00;99.90;;;;;;6211408;23;20102;-84
2022/12/08 10:55:57;;;;;;;7.90;1.50;;;2.80;99.90;;;;;;6187173;23;20028;-84
2022/12/08 10:58:34;;;;;;;10.38;1.60;;;2.70;99.90;;;;;;6212386;23;20024;-83
2022/12/08 11:01:16;;;;;;;4.28;1.30;;;3.30;99.90;;;;;;6210512;23;20368;-84
2022/12/08 11:03:42;;;;;;;5.78;1.10;;;2.80;99.90;;;;;;6212450;23;20020;-83
2022/12/08 11:06:16;;;;;;;6.82;1.25;;;3.40;99.90;;;;;;6210763;23;20108;-84
2022/12/08 11:08:51;;;;;;;5.30;1.13;;;2.80;99.90;;;;;;6211098;23;20028;-83
2022/12/08 11:11:18;;;;;;;4.55;1.02;;;4.00;99.90;;;;;;6212278;23;20824;-83
2022/12/08 11:13:46;;;;;;;7.88;1.00;;;3.00;99.90;;;;;;6212061;23;20020;-83
2022/12/08 11:16:14;;;;;;;6.70;0.90;;;3.00;99.90;;;;;;6211423;23;20087;-84
2022/12/08 11:18:43;;;;;;;10.27;1.17;;;3.00;99.90;;;;;;6212157;23;20028;-83
2022/12/08 11:21:13;;;;;;;5.97;1.15;;;3.70;99.90;;;;;;6211725;23;20023;-83
2022/12/08 11:23:41;;;;;;;5.88;1.02;;;3.10;99.90;;;;;;6212120;23;20122;-82
2022/12/08 11:26:23;;;;;;;6.10;0.88;;;3.10;99.90;;;;;;6211582;23;20015;-83
2022/12/08 11:28:51;;;;;;;4.88;0.68;;;3.20;99.90;;;;;;6211531;23;20035;-83
2022/12/08 11:31:37;;;;;;;4.88;0.82;;;3.80;99.90;;;;;;6211955;23;20020;-83
2022/12/08 11:34:05;;;;;;;3.30;0.50;;;3.30;99.90;;;;;;6211800;23;20051;-83
2022/12/08 11:36:34;;;;;;;5.18;1.00;;;4.20;99.90;;;;;;6185850;23;20020;-83
2022/12/08 11:39:03;;;;;;;6.05;0.82;;;3.90;99.90;;;;;;6211950;23;20028;-83
2022/12/08 11:41:36;;;;;;;3.30;1.08;;;3.30;99.90;;;;;;6212231;23;20048;-83
2022/12/08 11:44:22;;;;;;;3.40;0.75;;;4.30;99.90;;;;;;6211180;23;20019;-83
2022/12/08 11:46:55;;;;;;;4.15;0.82;;;3.30;99.90;;;;;;6212174;23;20035;-83
2022/12/08 11:49:31;;;;;;;3.80;1.10;;;3.40;99.90;;;;;;6211026;23;20092;-83
2022/12/08 11:52:06;;;;;;;4.88;0.80;;;4.00;99.90;;;;;;6211315;23;20016;-83
2022/12/08 11:54:39;;;;;;;2.53;0.50;;;4.60;99.90;;;;;;6211992;23;20031;-84
2022/12/08 11:57:11;;;;;;;4.32;0.60;;;3.60;99.90;;;;;;6210896;23;20019;-83
2022/12/08 11:59:43;;;;;;;2.60;0.40;;;4.30;99.90;;;;;;6211932;23;20020;-83
2022/12/08 12:02:13;;;;;;;1.42;0.38;;;3.80;99.90;;;;;;6212259;23;20091;-83
2022/12/08 12:04:48;;;;;;;3.38;0.57;;;3.80;99.90;;;;;;6210931;23;20020;-83
2022/12/08 12:07:32;;;;;;;1.85;0.32;;;3.80;99.90;;;;;;6211467;23;20016;-84
2022/12/08 12:10:22;;;;;;;4.50;0.55;;;3.80;99.90;;;;;;6210655;23;20349;-83
2022/12/08 12:13:07;;;;;;;2.42;0.60;;;3.80;99.90;;;;;;6211334;23;20469;-83
2022/12/08 12:15:48;;;;;;;1.23;0.40;;;3.70;99.90;;;;;;6187223;23;20348;-84
2022/12/08 12:18:26;;;;;;;2.00;0.40;;;3.70;99.90;;;;;;6210642;23;20074;-83
2022/12/08 12:20:57;;;;;;;2.65;0.30;;;4.70;99.90;;;;;;6185697;23;20097;-84
2022/12/08 12:23:34;;;;;;;4.40;0.70;;;4.30;99.90;;;;;;6211425;23;20028;-83
2022/12/08 12:26:04;;;;;;;2.55;0.40;;;3.60;99.90;;;;;;6210611;23;20112;-84
2022/12/08 12:28:56;;;;;;;4.88;0.90;;;2.70;99.90;;;;;;6211507;23;20026;-83
2022/12/08 12:31:26;;;;;;;3.45;1.13;;;3.50;99.90;;;;;;6211820;23;20024;-83
2022/12/08 12:34:03;;;;;;;5.30;0.60;;;3.60;99.90;;;;;;6210732;23;20059;-83
2022/12/08 12:36:31;;;;;;;5.43;0.75;;;3.60;99.90;;;;;;6185440;23;20326;-84
2022/12/08 12:39:06;;;;;;;1.98;0.68;;;3.80;99.90;;;;;;6210842;23;20056;-83
2022/12/08 12:41:48;;;;;;;3.35;0.50;;;3.80;99.90;;;;;;6186997;23;20024;-82
2022/12/08 12:44:14;;;;;;;4.95;0.90;;;3.90;99.90;;;;;;6212089;23;20052;-84
2022/12/08 12:46:53;;;;;;;6.85;0.50;;;4.00;99.90;;;;;;6186444;23;20348;-83
2022/12/08 12:50:03;;;;;;;8.00;0.70;;;4.00;99.90;;;;;;6210789;23;20031;-83
2022/12/08 12:52:31;;;;;;;3.50;0.50;;;4.60;99.90;;;;;;6212611;23;20016;-83
2022/12/08 12:54:57;;;;;;;2.40;0.32;;;4.00;99.90;;;;;;6210138;23;20438;-84
2022/12/08 12:57:35;;;;;;;2.30;0.40;;;5.00;99.90;;;;;;6187507;23;20087;-83
2022/12/08 13:00:01;;;;;;;2.80;0.75;;;3.90;99.90;;;;;;6209930;23;20051;-84
2022/12/08 13:02:35;;;;;;;2.03;0.68;;;4.90;99.90;;;;;;6187278;23;20046;-83
2022/12/08 13:05:07;;;;;;;1.77;0.30;;;3.90;99.90;;;;;;6212114;23;20016;-83
2022/12/08 13:07:41;;;;;;;2.28;0.32;;;3.90;99.90;;;;;;6187764;23;20380;-83
2022/12/08 13:10:10;;;;;;;2.88;0.20;;;3.80;99.90;;;;;;6213135;23;20429;-83
2022/12/08 13:12:36;;;;;;;0.52;0.17;;;3.70;99.90;;;;;;6213864;23;20016;-83